Details From LHBP - Budapest Ferihegy
To LJPZ - Portoroz
Flight Number -
Tags Generated
Created
Modified
Stats Distance 260 nm / 482 km
Max Altitude 0 ft / 0 m
Waypoints 3
Social Downloads 1
Likes 0
Share VATSIM

Download

Looking for another format? Having issues loading an existing format? Contact us
Advertisement - Login to hide

Notes

Generated

Route

LHBP PZ LJPZ

ID Type Via Altitude Latitude Longitude Leg Dist Tot Dist Heading (true) Name
O LHBP APT - 0 ft / 0 m 47.44871˚ 19.22076˚ - 0 nm - -
PZ NDB - 0 ft / 0 m 45.47746˚ 13.61492˚ 260 nm 260 nm 245° / 241° PORTOROZ NDB
O LJPZ APT - 0 ft / 0 m 45.47718˚ 13.61198˚ 0 nm 260 nm 262° / 262° -

Altitude Profile

Advertisement - Login to hide

Weather


0- 5 10 15 20 25 30 35+ Temperature / ° C

Clouds and Precipitation
Forecast for 2018-05-22 00:00 UTC. Updated an hour ago

Ground ~20,000 ft ~40,000 ft Winds

LHBP

Details ICAO LHBP (BUD)
Name Ferihegy (Budapest)
Region Hungary
Timezone Europe/Budapest (UTC+2.0)
Stats Elevation 495 ft / 151 m (AMSL)
Location 47.435292° 19.265792°
Runways 3
Magnetic Variation 4.814° E

METAR

LHBP 220030Z 05006KT CAVOK 14/13 Q1016 NOSIG

Decode

TAF

TAF TAF LHBP 212315Z 2200/2224 07006KT CAVOK TEMPO 2200/2206 VRB15G25KT 4500 SHRA TSRA SCT035CB BKN060 BECMG 2207/2209 12010KT SCT045 BECMG 2215/2217 11006KT TEMPO 2217/2224 VRB15G25KT 4000 SHRA TSRA SCT040CB BKN055

Decode

Departure Runways

ID Width Length Bearing (true) Bearing (mag) Surface Threshold Offset Overrun Length
13 250 ft / 76 m 6,000 ft / 1,829 m 132.54° 127.73° Unknown 0 ft / 0 m 0 ft / 0 m
13L 196 ft / 60 m 12,487 ft / 3,806 m 132.54° 127.73° Asphalt 0 ft / 0 m 200 ft / 61 m
13R 196 ft / 60 m 10,145 ft / 3,092 m 132.49° 127.68° Asphalt 0 ft / 0 m 197 ft / 60 m
31 250 ft / 76 m 6,000 ft / 1,829 m 312.55° 307.74° Unknown 0 ft / 0 m 0 ft / 0 m
31L 196 ft / 60 m 10,145 ft / 3,092 m 312.51° 307.70° Asphalt 0 ft / 0 m 197 ft / 60 m
31R 196 ft / 60 m 12,487 ft / 3,806 m 312.56° 307.75° Asphalt 0 ft / 0 m 197 ft / 60 m

LJPZ

Details ICAO LJPZ (POW)
Name PORTOROZ
Region Slovenia
Timezone Europe/Ljubljana (UTC+2.0)
Stats Elevation 7 ft / 2 m (AMSL)
Location 45.472445° 13.615681°
Runways 1
Magnetic Variation 3.492° E

METAR

LJPZ 220030Z AUTO 11004KT 9999 NSC 15/12 Q1011

Decode

TAF

Not found

Destination Runways

ID Width Length Bearing (true) Bearing (mag) Surface Threshold Offset Overrun Length
15 98 ft / 30 m 3,939 ft / 1,201 m 151.28° 147.79° Asphalt 0 ft / 0 m 0 ft / 0 m
33 98 ft / 30 m 3,939 ft / 1,201 m 331.29° 327.80° Asphalt 751 ft / 229 m 0 ft / 0 m